sensor_id;sensor_type;location;lat;lon;timestamp;temperature;humidity
60473;DHT22;46318;52.716;6.444;2023-07-13T00:00:42;17.50;71.40
60473;DHT22;46318;52.716;6.444;2023-07-13T00:03:08;17.50;71.30
60473;DHT22;46318;52.716;6.444;2023-07-13T00:05:34;17.50;71.30
60473;DHT22;46318;52.716;6.444;2023-07-13T00:08:00;17.50;71.30
60473;DHT22;46318;52.716;6.444;2023-07-13T00:10:26;17.50;71.50
60473;DHT22;46318;52.716;6.444;2023-07-13T00:12:52;17.40;71.60
60473;DHT22;46318;52.716;6.444;2023-07-13T00:15:23;17.40;71.70
60473;DHT22;46318;52.716;6.444;2023-07-13T00:17:51;17.40;72.00
60473;DHT22;46318;52.716;6.444;2023-07-13T00:20:20;17.30;72.20
60473;DHT22;46318;52.716;6.444;2023-07-13T00:22:51;17.30;72.50
60473;DHT22;46318;52.716;6.444;2023-07-13T00:25:21;17.30;72.40
60473;DHT22;46318;52.716;6.444;2023-07-13T00:27:49;17.30;72.60
60473;DHT22;46318;52.716;6.444;2023-07-13T00:30:16;17.20;72.70
60473;DHT22;46318;52.716;6.444;2023-07-13T00:32:42;17.20;72.70
60473;DHT22;46318;52.716;6.444;2023-07-13T00:35:08;17.20;72.90
60473;DHT22;46318;52.716;6.444;2023-07-13T00:37:34;17.30;73.00
60473;DHT22;46318;52.716;6.444;2023-07-13T00:40:03;17.20;73.00
60473;DHT22;46318;52.716;6.444;2023-07-13T00:42:30;17.20;73.20
60473;DHT22;46318;52.716;6.444;2023-07-13T00:47:37;17.20;73.50
60473;DHT22;46318;52.716;6.444;2023-07-13T00:50:08;17.20;73.40
60473;DHT22;46318;52.716;6.444;2023-07-13T00:52:37;17.20;73.80
60473;DHT22;46318;52.716;6.444;2023-07-13T00:55:06;17.20;73.70
60473;DHT22;46318;52.716;6.444;2023-07-13T00:57:33;17.20;74.20
60473;DHT22;46318;52.716;6.444;2023-07-13T01:00:00;17.10;73.60
60473;DHT22;46318;52.716;6.444;2023-07-13T01:02:44;17.10;74.00
60473;DHT22;46318;52.716;6.444;2023-07-13T01:05:17;17.20;74.30
60473;DHT22;46318;52.716;6.444;2023-07-13T01:07:47;17.20;74.20
60473;DHT22;46318;52.716;6.444;2023-07-13T01:10:14;17.20;74.60
60473;DHT22;46318;52.716;6.444;2023-07-13T01:12:41;17.10;74.70
60473;DHT22;46318;52.716;6.444;2023-07-13T01:17:58;17.10;75.40
60473;DHT22;46318;52.716;6.444;2023-07-13T01:20:24;17.10;75.40
60473;DHT22;46318;52.716;6.444;2023-07-13T01:22:50;17.10;75.70
60473;DHT22;46318;52.716;6.444;2023-07-13T01:25:18;17.10;75.70
60473;DHT22;46318;52.716;6.444;2023-07-13T01:27:44;17.10;75.90
60473;DHT22;46318;52.716;6.444;2023-07-13T01:30:10;17.10;75.90
60473;DHT22;46318;52.716;6.444;2023-07-13T01:32:36;17.10;75.90
60473;DHT22;46318;52.716;6.444;2023-07-13T01:35:02;17.10;75.90
60473;DHT22;46318;52.716;6.444;2023-07-13T01:37:29;17.20;76.20
60473;DHT22;46318;52.716;6.444;2023-07-13T01:39:59;17.20;76.20
60473;DHT22;46318;52.716;6.444;2023-07-13T01:42:25;17.10;76.30
60473;DHT22;46318;52.716;6.444;2023-07-13T01:44:51;17.10;76.50
60473;DHT22;46318;52.716;6.444;2023-07-13T01:47:17;17.10;76.60
60473;DHT22;46318;52.716;6.444;2023-07-13T01:49:43;17.10;76.80
60473;DHT22;46318;52.716;6.444;2023-07-13T01:52:11;17.10;77.00
60473;DHT22;46318;52.716;6.444;2023-07-13T01:54:37;17.00;77.00
60473;DHT22;46318;52.716;6.444;2023-07-13T01:57:03;17.00;77.00
60473;DHT22;46318;52.716;6.444;2023-07-13T01:59:29;17.00;77.00
60473;DHT22;46318;52.716;6.444;2023-07-13T02:01:58;17.00;77.10
60473;DHT22;46318;52.716;6.444;2023-07-13T02:04:27;17.00;77.30
60473;DHT22;46318;52.716;6.444;2023-07-13T02:06:53;17.00;77.30
60473;DHT22;46318;52.716;6.444;2023-07-13T02:09:21;16.90;77.50
60473;DHT22;46318;52.716;6.444;2023-07-13T02:11:47;16.90;77.50
60473;DHT22;46318;52.716;6.444;2023-07-13T02:14:14;16.90;77.50
60473;DHT22;46318;52.716;6.444;2023-07-13T02:16:41;16.90;77.60
60473;DHT22;46318;52.716;6.444;2023-07-13T02:19:07;16.90;77.80
60473;DHT22;46318;52.716;6.444;2023-07-13T02:21:34;16.80;77.90
60473;DHT22;46318;52.716;6.444;2023-07-13T02:24:00;16.80;77.90
60473;DHT22;46318;52.716;6.444;2023-07-13T02:26:26;16.80;78.20
60473;DHT22;46318;52.716;6.444;2023-07-13T02:28:52;16.80;78.40
60473;DHT22;46318;52.716;6.444;2023-07-13T02:31:18;16.80;78.50
60473;DHT22;46318;52.716;6.444;2023-07-13T02:33:50;16.80;78.60
60473;DHT22;46318;52.716;6.444;2023-07-13T02:36:16;16.70;78.80
60473;DHT22;46318;52.716;6.444;2023-07-13T02:38:42;16.70;79.10
60473;DHT22;46318;52.716;6.444;2023-07-13T02:41:08;16.70;79.00
60473;DHT22;46318;52.716;6.444;2023-07-13T02:43:35;16.70;79.20
60473;DHT22;46318;52.716;6.444;2023-07-13T02:46:02;16.70;79.50
60473;DHT22;46318;52.716;6.444;2023-07-13T02:48:35;16.60;79.70
60473;DHT22;46318;52.716;6.444;2023-07-13T02:51:01;16.60;79.70
60473;DHT22;46318;52.716;6.444;2023-07-13T02:53:27;16.60;79.70
60473;DHT22;46318;52.716;6.444;2023-07-13T02:55:53;16.60;79.90
60473;DHT22;46318;52.716;6.444;2023-07-13T02:58:19;16.60;79.90
60473;DHT22;46318;52.716;6.444;2023-07-13T03:00:46;16.60;80.00
60473;DHT22;46318;52.716;6.444;2023-07-13T03:03:14;16.60;80.20
60473;DHT22;46318;52.716;6.444;2023-07-13T03:05:41;16.60;80.20
60473;DHT22;46318;52.716;6.444;2023-07-13T03:08:09;16.60;80.10
60473;DHT22;46318;52.716;6.444;2023-07-13T03:10:35;16.60;80.10
60473;DHT22;46318;52.716;6.444;2023-07-13T03:13:01;16.60;80.30
60473;DHT22;46318;52.716;6.444;2023-07-13T03:15:28;16.50;80.40
60473;DHT22;46318;52.716;6.444;2023-07-13T03:17:53;16.50;80.60
60473;DHT22;46318;52.716;6.444;2023-07-13T03:20:19;16.50;80.50
60473;DHT22;46318;52.716;6.444;2023-07-13T03:22:46;16.50;80.50
60473;DHT22;46318;52.716;6.444;2023-07-13T03:25:12;16.50;80.60
60473;DHT22;46318;52.716;6.444;2023-07-13T03:27:38;16.50;80.60
60473;DHT22;46318;52.716;6.444;2023-07-13T03:30:05;16.50;80.60
60473;DHT22;46318;52.716;6.444;2023-07-13T03:32:32;16.50;80.70
60473;DHT22;46318;52.716;6.444;2023-07-13T03:34:58;16.50;80.80
60473;DHT22;46318;52.716;6.444;2023-07-13T03:37:25;16.50;80.90
60473;DHT22;46318;52.716;6.444;2023-07-13T03:39:50;16.50;80.80
60473;DHT22;46318;52.716;6.444;2023-07-13T03:42:16;16.50;81.00
60473;DHT22;46318;52.716;6.444;2023-07-13T03:44:42;16.50;81.00
60473;DHT22;46318;52.716;6.444;2023-07-13T03:47:17;16.40;80.70
60473;DHT22;46318;52.716;6.444;2023-07-13T03:49:43;16.40;80.80
60473;DHT22;46318;52.716;6.444;2023-07-13T03:52:11;16.40;81.00
60473;DHT22;46318;52.716;6.444;2023-07-13T03:54:37;16.40;81.10
60473;DHT22;46318;52.716;6.444;2023-07-13T03:57:03;16.40;81.10
60473;DHT22;46318;52.716;6.444;2023-07-13T03:59:29;16.40;81.10
60473;DHT22;46318;52.716;6.444;2023-07-13T04:01:55;16.40;81.20
60473;DHT22;46318;52.716;6.444;2023-07-13T04:04:21;16.40;81.10
60473;DHT22;46318;52.716;6.444;2023-07-13T04:06:48;16.40;81.20
60473;DHT22;46318;52.716;6.444;2023-07-13T04:09:14;16.30;81.20
60473;DHT22;46318;52.716;6.444;2023-07-13T04:11:39;16.30;81.30
60473;DHT22;46318;52.716;6.444;2023-07-13T04:14:06;16.30;81.40
60473;DHT22;46318;52.716;6.444;2023-07-13T04:16:31;16.30;81.30
60473;DHT22;46318;52.716;6.444;2023-07-13T04:18:57;16.30;81.50
60473;DHT22;46318;52.716;6.444;2023-07-13T04:21:26;16.30;81.40
60473;DHT22;46318;52.716;6.444;2023-07-13T04:23:53;16.30;81.50
60473;DHT22;46318;52.716;6.444;2023-07-13T04:26:19;16.30;81.60
60473;DHT22;46318;52.716;6.444;2023-07-13T04:28:50;16.30;81.60
60473;DHT22;46318;52.716;6.444;2023-07-13T04:31:22;16.30;81.70
60473;DHT22;46318;52.716;6.444;2023-07-13T04:33:49;16.30;81.90
60473;DHT22;46318;52.716;6.444;2023-07-13T04:36:16;16.20;81.90
60473;DHT22;46318;52.716;6.444;2023-07-13T04:38:42;16.20;81.90
60473;DHT22;46318;52.716;6.444;2023-07-13T04:41:08;16.20;82.00
60473;DHT22;46318;52.716;6.444;2023-07-13T04:43:35;16.30;82.00
60473;DHT22;46318;52.716;6.444;2023-07-13T04:46:11;16.30;81.90
60473;DHT22;46318;52.716;6.444;2023-07-13T04:48:38;16.30;82.00
60473;DHT22;46318;52.716;6.444;2023-07-13T04:51:04;16.30;82.00
60473;DHT22;46318;52.716;6.444;2023-07-13T04:53:31;16.30;82.00
60473;DHT22;46318;52.716;6.444;2023-07-13T04:56:00;16.20;82.00
60473;DHT22;46318;52.716;6.444;2023-07-13T04:58:27;16.20;82.40
60473;DHT22;46318;52.716;6.444;2023-07-13T05:00:53;16.20;82.30
60473;DHT22;46318;52.716;6.444;2023-07-13T05:03:28;16.30;82.50
60473;DHT22;46318;52.716;6.444;2023-07-13T05:06:02;16.30;82.50
60473;DHT22;46318;52.716;6.444;2023-07-13T05:08:30;16.30;82.60
60473;DHT22;46318;52.716;6.444;2023-07-13T05:10:56;16.30;82.50
60473;DHT22;46318;52.716;6.444;2023-07-13T05:13:24;16.30;82.70
60473;DHT22;46318;52.716;6.444;2023-07-13T05:16:01;16.40;82.70
60473;DHT22;46318;52.716;6.444;2023-07-13T05:18:29;16.40;82.70
60473;DHT22;46318;52.716;6.444;2023-07-13T05:21:04;16.40;82.60
60473;DHT22;46318;52.716;6.444;2023-07-13T05:23:33;16.50;82.70
60473;DHT22;46318;52.716;6.444;2023-07-13T05:26:00;16.50;82.60
60473;DHT22;46318;52.716;6.444;2023-07-13T05:28:27;16.50;82.70
60473;DHT22;46318;52.716;6.444;2023-07-13T05:30:53;16.60;82.60
60473;DHT22;46318;52.716;6.444;2023-07-13T05:33:20;16.60;82.50
60473;DHT22;46318;52.716;6.444;2023-07-13T05:35:46;16.60;82.60
60473;DHT22;46318;52.716;6.444;2023-07-13T05:38:13;16.70;82.80
60473;DHT22;46318;52.716;6.444;2023-07-13T05:40:39;16.70;82.80
60473;DHT22;46318;52.716;6.444;2023-07-13T05:43:07;16.70;82.80
60473;DHT22;46318;52.716;6.444;2023-07-13T05:45:33;16.70;82.90
60473;DHT22;46318;52.716;6.444;2023-07-13T05:47:59;16.80;82.80
60473;DHT22;46318;52.716;6.444;2023-07-13T05:50:26;16.90;82.70
60473;DHT22;46318;52.716;6.444;2023-07-13T05:52:55;16.90;82.90
60473;DHT22;46318;52.716;6.444;2023-07-13T05:55:22;17.00;82.90
60473;DHT22;46318;52.716;6.444;2023-07-13T05:57:48;17.00;82.60
60473;DHT22;46318;52.716;6.444;2023-07-13T06:00:14;17.10;82.60
60473;DHT22;46318;52.716;6.444;2023-07-13T06:02:41;17.10;82.70
60473;DHT22;46318;52.716;6.444;2023-07-13T06:05:08;17.20;82.60
60473;DHT22;46318;52.716;6.444;2023-07-13T06:07:34;17.30;82.50
60473;DHT22;46318;52.716;6.444;2023-07-13T06:10:00;17.40;82.40
60473;DHT22;46318;52.716;6.444;2023-07-13T06:12:26;17.50;82.20
60473;DHT22;46318;52.716;6.444;2023-07-13T06:14:53;17.60;82.00
60473;DHT22;46318;52.716;6.444;2023-07-13T06:17:19;17.70;81.90
60473;DHT22;46318;52.716;6.444;2023-07-13T06:19:48;17.80;81.70
60473;DHT22;46318;52.716;6.444;2023-07-13T06:22:14;17.80;81.40
60473;DHT22;46318;52.716;6.444;2023-07-13T06:24:40;17.90;81.20
60473;DHT22;46318;52.716;6.444;2023-07-13T06:27:06;18.00;81.00
60473;DHT22;46318;52.716;6.444;2023-07-13T06:29:33;18.10;80.70
60473;DHT22;46318;52.716;6.444;2023-07-13T06:31:59;18.20;80.40
60473;DHT22;46318;52.716;6.444;2023-07-13T06:34:24;18.30;80.20
60473;DHT22;46318;52.716;6.444;2023-07-13T06:36:51;18.40;80.00
60473;DHT22;46318;52.716;6.444;2023-07-13T06:39:16;18.40;80.00
60473;DHT22;46318;52.716;6.444;2023-07-13T06:41:42;18.60;79.80
60473;DHT22;46318;52.716;6.444;2023-07-13T06:44:08;18.60;79.60
60473;DHT22;46318;52.716;6.444;2023-07-13T06:46:34;18.70;79.50
60473;DHT22;46318;52.716;6.444;2023-07-13T06:49:00;18.70;79.10
60473;DHT22;46318;52.716;6.444;2023-07-13T06:51:32;18.70;79.00
60473;DHT22;46318;52.716;6.444;2023-07-13T06:53:58;18.70;79.00
60473;DHT22;46318;52.716;6.444;2023-07-13T06:56:24;18.70;79.00
60473;DHT22;46318;52.716;6.444;2023-07-13T06:58:50;18.70;79.00
60473;DHT22;46318;52.716;6.444;2023-07-13T07:01:16;18.70;79.00
60473;DHT22;46318;52.716;6.444;2023-07-13T07:03:45;18.70;78.80
60473;DHT22;46318;52.716;6.444;2023-07-13T07:06:17;18.70;79.00
60473;DHT22;46318;52.716;6.444;2023-07-13T07:08:45;18.70;79.10
60473;DHT22;46318;52.716;6.444;2023-07-13T07:11:17;18.70;79.00
60473;DHT22;46318;52.716;6.444;2023-07-13T07:13:52;18.70;79.10
60473;DHT22;46318;52.716;6.444;2023-07-13T07:16:19;18.70;78.90
60473;DHT22;46318;52.716;6.444;2023-07-13T07:18:46;18.70;78.90
60473;DHT22;46318;52.716;6.444;2023-07-13T07:21:13;18.70;78.90
60473;DHT22;46318;52.716;6.444;2023-07-13T07:23:39;18.70;79.10
60473;DHT22;46318;52.716;6.444;2023-07-13T07:26:05;18.80;78.90
60473;DHT22;46318;52.716;6.444;2023-07-13T07:28:34;18.80;78.70
60473;DHT22;46318;52.716;6.444;2023-07-13T07:31:00;18.80;78.70
60473;DHT22;46318;52.716;6.444;2023-07-13T07:33:26;18.80;78.90
60473;DHT22;46318;52.716;6.444;2023-07-13T07:35:55;18.90;78.90
60473;DHT22;46318;52.716;6.444;2023-07-13T07:38:21;18.90;78.90
60473;DHT22;46318;52.716;6.444;2023-07-13T07:40:47;18.90;78.90
60473;DHT22;46318;52.716;6.444;2023-07-13T07:43:13;18.90;79.10
60473;DHT22;46318;52.716;6.444;2023-07-13T07:45:39;19.00;78.80
60473;DHT22;46318;52.716;6.444;2023-07-13T07:48:07;19.00;78.90
60473;DHT22;46318;52.716;6.444;2023-07-13T07:50:35;19.10;78.80
60473;DHT22;46318;52.716;6.444;2023-07-13T07:53:02;19.10;78.80
60473;DHT22;46318;52.716;6.444;2023-07-13T07:55:28;19.20;78.80
60473;DHT22;46318;52.716;6.444;2023-07-13T07:58:07;19.30;78.60
60473;DHT22;46318;52.716;6.444;2023-07-13T08:00:35;19.30;78.50
60473;DHT22;46318;52.716;6.444;2023-07-13T08:03:01;19.50;78.30
60473;DHT22;46318;52.716;6.444;2023-07-13T08:05:31;19.60;78.10
60473;DHT22;46318;52.716;6.444;2023-07-13T08:07:57;19.80;77.40
60473;DHT22;46318;52.716;6.444;2023-07-13T08:10:23;19.80;76.60
60473;DHT22;46318;52.716;6.444;2023-07-13T08:12:49;19.90;76.20
60473;DHT22;46318;52.716;6.444;2023-07-13T08:15:16;19.90;76.00
60473;DHT22;46318;52.716;6.444;2023-07-13T08:17:43;20.00;75.50
60473;DHT22;46318;52.716;6.444;2023-07-13T08:20:09;20.00;75.00
60473;DHT22;46318;52.716;6.444;2023-07-13T08:22:35;20.10;74.90
60473;DHT22;46318;52.716;6.444;2023-07-13T08:25:02;20.20;75.10
60473;DHT22;46318;52.716;6.444;2023-07-13T08:27:28;20.20;74.90
60473;DHT22;46318;52.716;6.444;2023-07-13T08:29:55;20.20;74.50
60473;DHT22;46318;52.716;6.444;2023-07-13T08:32:22;20.30;74.50
60473;DHT22;46318;52.716;6.444;2023-07-13T08:34:49;20.30;74.00
60473;DHT22;46318;52.716;6.444;2023-07-13T08:37:16;20.30;73.40
60473;DHT22;46318;52.716;6.444;2023-07-13T08:39:42;20.30;73.00
60473;DHT22;46318;52.716;6.444;2023-07-13T08:45:11;20.20;72.30
60473;DHT22;46318;52.716;6.444;2023-07-13T08:47:57;20.20;72.40
60473;DHT22;46318;52.716;6.444;2023-07-13T08:50:31;20.20;74.20
60473;DHT22;46318;52.716;6.444;2023-07-13T08:53:02;20.20;75.60
60473;DHT22;46318;52.716;6.444;2023-07-13T08:55:31;20.10;76.10
60473;DHT22;46318;52.716;6.444;2023-07-13T08:58:49;20.10;76.40
60473;DHT22;46318;52.716;6.444;2023-07-13T09:06:03;19.50;76.20
60473;DHT22;46318;52.716;6.444;2023-07-13T09:12:22;18.60;76.00
60473;DHT22;46318;52.716;6.444;2023-07-13T09:15:38;18.30;76.60
60473;DHT22;46318;52.716;6.444;2023-07-13T09:19:20;18.00;76.40
60473;DHT22;46318;52.716;6.444;2023-07-13T09:35:12;16.80;80.50
60473;DHT22;46318;52.716;6.444;2023-07-13T09:38:19;16.70;81.20
60473;DHT22;46318;52.716;6.444;2023-07-13T09:41:39;16.60;81.40
60473;DHT22;46318;52.716;6.444;2023-07-13T09:48:39;16.50;82.50
60473;DHT22;46318;52.716;6.444;2023-07-13T09:51:58;16.50;83.50
60473;DHT22;46318;52.716;6.444;2023-07-13T09:54:51;16.40;85.30
60473;DHT22;46318;52.716;6.444;2023-07-13T09:57:30;16.40;83.70
60473;DHT22;46318;52.716;6.444;2023-07-13T09:59:59;16.40;84.40
60473;DHT22;46318;52.716;6.444;2023-07-13T10:03:13;16.40;84.80
60473;DHT22;46318;52.716;6.444;2023-07-13T10:05:54;16.50;85.90
60473;DHT22;46318;52.716;6.444;2023-07-13T10:09:30;16.60;86.50
60473;DHT22;46318;52.716;6.444;2023-07-13T10:12:32;16.90;87.20
60473;DHT22;46318;52.716;6.444;2023-07-13T10:18:53;17.30;87.50
60473;DHT22;46318;52.716;6.444;2023-07-13T10:21:32;17.60;87.20
60473;DHT22;46318;52.716;6.444;2023-07-13T10:24:13;17.80;88.20
60473;DHT22;46318;52.716;6.444;2023-07-13T10:27:17;18.10;88.70
60473;DHT22;46318;52.716;6.444;2023-07-13T10:32:55;18.60;88.40
60473;DHT22;46318;52.716;6.444;2023-07-13T10:35:24;18.90;87.90
60473;DHT22;46318;52.716;6.444;2023-07-13T10:38:12;19.10;87.30
60473;DHT22;46318;52.716;6.444;2023-07-13T10:41:02;19.20;86.10
60473;DHT22;46318;52.716;6.444;2023-07-13T10:43:42;19.40;84.60
60473;DHT22;46318;52.716;6.444;2023-07-13T10:46:19;19.40;84.10
60473;DHT22;46318;52.716;6.444;2023-07-13T10:48:53;19.40;84.10
60473;DHT22;46318;52.716;6.444;2023-07-13T10:51:23;19.40;83.70
60473;DHT22;46318;52.716;6.444;2023-07-13T10:54:18;19.30;84.30
60473;DHT22;46318;52.716;6.444;2023-07-13T10:57:20;19.30;84.50
60473;DHT22;46318;52.716;6.444;2023-07-13T11:00:14;19.00;83.20
60473;DHT22;46318;52.716;6.444;2023-07-13T11:02:43;18.70;83.30
60473;DHT22;46318;52.716;6.444;2023-07-13T11:08:02;18.10;82.90
60473;DHT22;46318;52.716;6.444;2023-07-13T11:11:32;18.00;83.10
60473;DHT22;46318;52.716;6.444;2023-07-13T11:16:49;18.00;86.10
60473;DHT22;46318;52.716;6.444;2023-07-13T11:19:24;18.10;86.80
60473;DHT22;46318;52.716;6.444;2023-07-13T11:25:00;18.40;87.40
60473;DHT22;46318;52.716;6.444;2023-07-13T11:30:25;18.70;88.70
60473;DHT22;46318;52.716;6.444;2023-07-13T11:36:19;19.00;89.10
60473;DHT22;46318;52.716;6.444;2023-07-13T11:39:15;19.20;89.30
60473;DHT22;46318;52.716;6.444;2023-07-13T11:42:07;19.50;88.90
60473;DHT22;46318;52.716;6.444;2023-07-13T11:44:46;19.60;87.60
60473;DHT22;46318;52.716;6.444;2023-07-13T11:47:22;19.80;88.30
60473;DHT22;46318;52.716;6.444;2023-07-13T11:50:03;20.00;87.90
60473;DHT22;46318;52.716;6.444;2023-07-13T11:52:43;20.20;87.90
60473;DHT22;46318;52.716;6.444;2023-07-13T11:55:29;20.30;86.50
60473;DHT22;46318;52.716;6.444;2023-07-13T11:58:03;20.40;84.60
60473;DHT22;46318;52.716;6.444;2023-07-13T12:00:33;20.50;84.30
60473;DHT22;46318;52.716;6.444;2023-07-13T12:03:01;20.60;82.70
60473;DHT22;46318;52.716;6.444;2023-07-13T12:05:28;20.60;81.70
60473;DHT22;46318;52.716;6.444;2023-07-13T12:07:56;20.70;81.30
60473;DHT22;46318;52.716;6.444;2023-07-13T12:10:27;20.90;81.20
60473;DHT22;46318;52.716;6.444;2023-07-13T12:15:51;21.10;80.30
60473;DHT22;46318;52.716;6.444;2023-07-13T12:18:45;21.20;79.40
60473;DHT22;46318;52.716;6.444;2023-07-13T12:21:44;21.20;76.40
60473;DHT22;46318;52.716;6.444;2023-07-13T12:24:17;21.30;73.00
60473;DHT22;46318;52.716;6.444;2023-07-13T12:26:59;21.30;73.10
60473;DHT22;46318;52.716;6.444;2023-07-13T12:29:27;21.30;72.40
60473;DHT22;46318;52.716;6.444;2023-07-13T12:34:55;21.20;71.70
60473;DHT22;46318;52.716;6.444;2023-07-13T12:37:25;21.30;70.50
60473;DHT22;46318;52.716;6.444;2023-07-13T12:39:59;21.30;70.40
60473;DHT22;46318;52.716;6.444;2023-07-13T12:42:39;21.40;69.80
60473;DHT22;46318;52.716;6.444;2023-07-13T12:45:22;21.50;68.90
60473;DHT22;46318;52.716;6.444;2023-07-13T12:47:58;21.50;67.40
60473;DHT22;46318;52.716;6.444;2023-07-13T12:50:50;21.50;67.20
60473;DHT22;46318;52.716;6.444;2023-07-13T12:53:22;21.50;66.80
60473;DHT22;46318;52.716;6.444;2023-07-13T12:56:33;21.50;66.60
60473;DHT22;46318;52.716;6.444;2023-07-13T12:59:31;21.60;66.30
60473;DHT22;46318;52.716;6.444;2023-07-13T13:02:32;21.70;66.80
60473;DHT22;46318;52.716;6.444;2023-07-13T13:05:01;21.60;65.30
60473;DHT22;46318;52.716;6.444;2023-07-13T13:07:30;21.50;65.70
60473;DHT22;46318;52.716;6.444;2023-07-13T13:09:58;21.50;65.20
60473;DHT22;46318;52.716;6.444;2023-07-13T13:12:52;21.40;64.80
60473;DHT22;46318;52.716;6.444;2023-07-13T13:15:28;21.40;63.60
60473;DHT22;46318;52.716;6.444;2023-07-13T13:18:16;21.40;64.40
60473;DHT22;46318;52.716;6.444;2023-07-13T13:21:07;21.40;64.50
60473;DHT22;46318;52.716;6.444;2023-07-13T13:24:27;21.40;64.70
60473;DHT22;46318;52.716;6.444;2023-07-13T13:30:04;21.30;64.20
60473;DHT22;46318;52.716;6.444;2023-07-13T13:32:48;21.40;63.50
60473;DHT22;46318;52.716;6.444;2023-07-13T13:35:43;21.50;64.30
60473;DHT22;46318;52.716;6.444;2023-07-13T13:38:35;21.70;63.50
60473;DHT22;46318;52.716;6.444;2023-07-13T13:45:04;22.00;61.80
60473;DHT22;46318;52.716;6.444;2023-07-13T13:48:22;22.00;62.00
60473;DHT22;46318;52.716;6.444;2023-07-13T13:52:03;22.20;61.50
60473;DHT22;46318;52.716;6.444;2023-07-13T13:54:58;22.30;60.50
60473;DHT22;46318;52.716;6.444;2023-07-13T14:04:37;22.60;58.90
60473;DHT22;46318;52.716;6.444;2023-07-13T14:07:18;22.50;59.10
60473;DHT22;46318;52.716;6.444;2023-07-13T14:10:26;22.50;58.30
60473;DHT22;46318;52.716;6.444;2023-07-13T14:12:54;22.50;58.40
60473;DHT22;46318;52.716;6.444;2023-07-13T14:15:30;22.60;58.40
60473;DHT22;46318;52.716;6.444;2023-07-13T14:17:59;22.70;58.20
60473;DHT22;46318;52.716;6.444;2023-07-13T14:20:26;22.70;58.50
60473;DHT22;46318;52.716;6.444;2023-07-13T14:22:55;22.70;57.70
60473;DHT22;46318;52.716;6.444;2023-07-13T14:25:24;22.60;57.80
60473;DHT22;46318;52.716;6.444;2023-07-13T14:27:56;22.60;58.30
60473;DHT22;46318;52.716;6.444;2023-07-13T14:30:25;22.60;58.00
60473;DHT22;46318;52.716;6.444;2023-07-13T14:32:51;22.60;58.20
60473;DHT22;46318;52.716;6.444;2023-07-13T14:35:20;22.60;57.70
60473;DHT22;46318;52.716;6.444;2023-07-13T14:37:47;22.60;57.30
60473;DHT22;46318;52.716;6.444;2023-07-13T14:40:16;22.50;57.30
60473;DHT22;46318;52.716;6.444;2023-07-13T14:42:44;22.50;56.80
60473;DHT22;46318;52.716;6.444;2023-07-13T14:45:18;22.50;56.90
60473;DHT22;46318;52.716;6.444;2023-07-13T14:47:46;22.60;57.80
60473;DHT22;46318;52.716;6.444;2023-07-13T14:50:22;22.70;57.40
60473;DHT22;46318;52.716;6.444;2023-07-13T14:52:52;22.80;57.30
60473;DHT22;46318;52.716;6.444;2023-07-13T14:55:19;23.00;57.30
60473;DHT22;46318;52.716;6.444;2023-07-13T14:57:46;23.20;56.40
60473;DHT22;46318;52.716;6.444;2023-07-13T15:00:17;23.30;56.40
60473;DHT22;46318;52.716;6.444;2023-07-13T15:02:50;23.30;56.20
60473;DHT22;46318;52.716;6.444;2023-07-13T15:05:25;23.30;56.00
60473;DHT22;46318;52.716;6.444;2023-07-13T15:07:53;23.30;55.70
60473;DHT22;46318;52.716;6.444;2023-07-13T15:10:28;23.30;55.70
60473;DHT22;46318;52.716;6.444;2023-07-13T15:15:48;23.30;57.10
60473;DHT22;46318;52.716;6.444;2023-07-13T15:18:17;23.30;56.80
60473;DHT22;46318;52.716;6.444;2023-07-13T15:20:47;23.30;56.60
60473;DHT22;46318;52.716;6.444;2023-07-13T15:23:15;23.30;56.50
60473;DHT22;46318;52.716;6.444;2023-07-13T15:29:35;23.50;56.50
60473;DHT22;46318;52.716;6.444;2023-07-13T15:32:21;23.40;56.00
60473;DHT22;46318;52.716;6.444;2023-07-13T15:35:23;23.40;56.40
60473;DHT22;46318;52.716;6.444;2023-07-13T15:38:20;23.50;56.30
60473;DHT22;46318;52.716;6.444;2023-07-13T15:41:28;23.50;55.80
60473;DHT22;46318;52.716;6.444;2023-07-13T15:44:31;23.40;56.00
60473;DHT22;46318;52.716;6.444;2023-07-13T15:47:03;23.30;55.70
60473;DHT22;46318;52.716;6.444;2023-07-13T15:49:32;23.30;56.30
60473;DHT22;46318;52.716;6.444;2023-07-13T15:52:28;23.30;56.40
60473;DHT22;46318;52.716;6.444;2023-07-13T15:55:10;23.40;56.20
60473;DHT22;46318;52.716;6.444;2023-07-13T15:58:03;23.40;56.10
60473;DHT22;46318;52.716;6.444;2023-07-13T16:00:29;23.40;56.20
60473;DHT22;46318;52.716;6.444;2023-07-13T16:02:55;23.40;55.90
60473;DHT22;46318;52.716;6.444;2023-07-13T16:05:24;23.50;55.90
60473;DHT22;46318;52.716;6.444;2023-07-13T16:07:56;23.60;56.40
60473;DHT22;46318;52.716;6.444;2023-07-13T16:10:36;23.70;56.70
60473;DHT22;46318;52.716;6.444;2023-07-13T16:13:19;23.70;55.90
60473;DHT22;46318;52.716;6.444;2023-07-13T16:15:55;23.60;56.20
60473;DHT22;46318;52.716;6.444;2023-07-13T16:18:37;23.60;56.40
60473;DHT22;46318;52.716;6.444;2023-07-13T16:21:09;23.70;56.40
60473;DHT22;46318;52.716;6.444;2023-07-13T16:23:45;23.70;56.20
60473;DHT22;46318;52.716;6.444;2023-07-13T16:29:26;23.70;55.80
60473;DHT22;46318;52.716;6.444;2023-07-13T16:32:24;23.70;56.10
60473;DHT22;46318;52.716;6.444;2023-07-13T16:34:57;23.70;55.70
60473;DHT22;46318;52.716;6.444;2023-07-13T16:37:26;23.60;56.30
60473;DHT22;46318;52.716;6.444;2023-07-13T16:40:21;23.50;56.20
60473;DHT22;46318;52.716;6.444;2023-07-13T16:43:01;23.40;56.60
60473;DHT22;46318;52.716;6.444;2023-07-13T16:45:36;23.40;56.60
60473;DHT22;46318;52.716;6.444;2023-07-13T16:48:16;23.20;56.90
60473;DHT22;46318;52.716;6.444;2023-07-13T16:50:55;23.10;57.00
60473;DHT22;46318;52.716;6.444;2023-07-13T16:53:30;23.00;57.40
60473;DHT22;46318;52.716;6.444;2023-07-13T16:56:48;23.00;57.60
60473;DHT22;46318;52.716;6.444;2023-07-13T16:59:34;22.90;57.90
60473;DHT22;46318;52.716;6.444;2023-07-13T17:04:58;22.80;58.00
60473;DHT22;46318;52.716;6.444;2023-07-13T17:07:36;22.70;58.00
60473;DHT22;46318;52.716;6.444;2023-07-13T17:10:22;22.70;57.20
60473;DHT22;46318;52.716;6.444;2023-07-13T17:12:59;22.70;56.70
60473;DHT22;46318;52.716;6.444;2023-07-13T17:15:35;22.60;56.70
60473;DHT22;46318;52.716;6.444;2023-07-13T17:18:11;22.50;56.50
60473;DHT22;46318;52.716;6.444;2023-07-13T17:20:45;22.50;56.50
60473;DHT22;46318;52.716;6.444;2023-07-13T17:23:36;22.40;56.90
60473;DHT22;46318;52.716;6.444;2023-07-13T17:26:03;22.30;57.00
60473;DHT22;46318;52.716;6.444;2023-07-13T17:31:20;22.30;57.30
60473;DHT22;46318;52.716;6.444;2023-07-13T17:33:47;22.20;57.20
60473;DHT22;46318;52.716;6.444;2023-07-13T17:36:25;22.20;57.60
60473;DHT22;46318;52.716;6.444;2023-07-13T17:39:20;22.10;57.40
60473;DHT22;46318;52.716;6.444;2023-07-13T17:42:12;22.10;57.80